Sherman, Wisconsin
Current Conditions -  °F | °C
As of 2:55 PM on Tuesday 27 Jan 2015 (Local Time) from KPBH Reporting Station
Overcast Overcast  
Wind Chill: -4°   Ceiling: 1300
Heat Index: -4°   Visibility: 10mi
Dew Point: -7°   Wind: 0mph
Humidity: 82%   Direction: NA
Pressure: 30.15"   Gusts: NA
Location:  45.9599°N, 90.2362°W
Report Text: KPBH 272055Z AUTO 00000KT 10SM OVC013 M04/M07 A3015 RMK AO2 T10421069
Loading
Personal Weather Stations






























Interactive Weather Map New forecast layout! Learn more

10-Day Weather Forecast

Advertisements
Track Severe Weather on mobile